createdAt,value
2023-01-19T00:02:20.829Z,98868.50
2023-01-19T00:05:20.837Z,98855.25
2023-01-19T00:08:22.871Z,98859.69
2023-01-19T00:11:24.866Z,98834.94
2023-01-19T00:14:24.855Z,98857.87
2023-01-19T00:17:24.818Z,98861.44
2023-01-19T00:20:25.812Z,98853.03
2023-01-19T00:23:26.832Z,98848.56
2023-01-19T00:26:31.066Z,98846.22
2023-01-19T00:29:30.857Z,98833.97
2023-01-19T00:32:30.854Z,98834.19
2023-01-19T00:35:30.871Z,98824.66
2023-01-19T00:38:30.856Z,98833.25
2023-01-19T00:41:50.836Z,98801.38
2023-01-19T00:44:50.856Z,98803.63
2023-01-19T00:47:50.864Z,98802.81
2023-01-19T00:50:50.843Z,98807.41
2023-01-19T00:53:50.873Z,98806.50
2023-01-19T00:56:50.814Z,98800.56
2023-01-19T00:59:50.810Z,98793.75
2023-01-19T01:02:54.873Z,98769.38
2023-01-19T01:05:54.843Z,98789.13
2023-01-19T01:08:54.841Z,98780.75
2023-01-19T01:11:55.825Z,98789.84
2023-01-19T01:14:55.836Z,98784.88
2023-01-19T01:17:55.871Z,98787.13
2023-01-19T01:20:56.409Z,98802.38
2023-01-19T01:23:48.887Z,98802.25
2023-01-19T01:26:48.837Z,98794.31
2023-01-19T01:29:46.582Z,98764.22
2023-01-19T01:32:45.878Z,98772.47
2023-01-19T01:35:45.819Z,98776.97
2023-01-19T03:32:29.856Z,98665.66
2023-01-19T03:35:29.827Z,98643.97
2023-01-19T03:38:31.870Z,98656.66
2023-01-19T03:41:32.841Z,98639.72
2023-01-19T03:44:32.863Z,98672.97
2023-01-19T03:47:32.817Z,98652.91
2023-01-19T03:50:41.825Z,98645.28
2023-01-19T03:53:41.884Z,98652.66
2023-01-19T03:56:34.952Z,98668.72
2023-01-19T03:59:34.852Z,98658.13
2023-01-19T04:02:34.869Z,98666.19
2023-01-19T04:05:34.852Z,98662.38
2023-01-19T04:08:34.846Z,98648.22
2023-01-19T04:11:34.865Z,98645.53
2023-01-19T04:14:34.821Z,98650.03
2023-01-19T04:17:34.845Z,98627.13
2023-01-19T04:20:35.855Z,98626.34
2023-01-19T04:23:35.818Z,98636.59
2023-01-19T04:26:35.854Z,98658.72
2023-01-19T04:29:35.855Z,98621.56
2023-01-19T04:32:35.814Z,98572.19
2023-01-19T04:35:35.826Z,98605.84
2023-01-19T04:38:36.844Z,98626.94
2023-01-19T04:41:36.831Z,98656.56
2023-01-19T04:44:36.806Z,98653.91
2023-01-19T04:47:36.823Z,98689.84
2023-01-19T04:50:36.837Z,98685.75
2023-01-19T04:53:36.841Z,98664.56
2023-01-19T04:56:36.869Z,98674.72
2023-01-19T04:59:36.807Z,98665.66
2023-01-19T05:02:36.871Z,98653.97
2023-01-19T05:05:36.860Z,98683.22
2023-01-19T05:08:36.871Z,98668.09
2023-01-19T05:11:36.857Z,98674.00
2023-01-19T05:14:36.848Z,98669.50
2023-01-19T05:17:36.833Z,98684.84
2023-01-19T05:20:36.809Z,98683.72
2023-01-19T05:23:37.840Z,98685.13
2023-01-19T05:26:37.805Z,98666.34
2023-01-19T05:29:37.864Z,98584.28
2023-01-19T05:32:37.799Z,98657.25
2023-01-19T05:35:37.837Z,98668.53
2023-01-19T05:38:37.805Z,98659.78
2023-01-19T05:41:37.866Z,98663.91
2023-01-19T05:44:37.859Z,98644.94
2023-01-19T05:47:37.853Z,98648.75
2023-01-19T05:50:37.840Z,98664.56
2023-01-19T05:53:37.868Z,98667.28
2023-01-19T05:56:37.835Z,98650.41
2023-01-19T05:59:37.832Z,98656.28
2023-01-19T06:02:38.847Z,98653.25
2023-01-19T06:05:38.845Z,98674.72
2023-01-19T06:08:38.856Z,98661.91
2023-01-19T06:11:38.799Z,98655.19
2023-01-19T06:14:39.811Z,98689.63
2023-01-19T06:17:39.853Z,98683.47
2023-01-19T06:20:39.865Z,98697.19
2023-01-19T06:23:43.806Z,98701.47
2023-01-19T06:26:43.847Z,98705.84
2023-01-19T06:29:43.846Z,98704.91
2023-01-19T06:32:43.884Z,98675.44
2023-01-19T06:35:43.808Z,98692.50
2023-01-19T06:38:43.871Z,98715.31
2023-01-19T06:41:43.818Z,98701.06
2023-01-19T06:44:43.898Z,98703.41
2023-01-19T06:47:44.875Z,98704.34
2023-01-19T06:53:40.882Z,98702.31
2023-01-19T06:56:27.933Z,98702.47
2023-01-19T06:59:28.881Z,98683.88
2023-01-19T07:02:30.126Z,98684.69
2023-01-19T07:05:37.952Z,98711.38
2023-01-19T07:08:37.961Z,98709.97
2023-01-19T07:11:37.851Z,98687.28
2023-01-19T07:14:40.829Z,98710.38
2023-01-19T07:17:40.834Z,98706.53
2023-01-19T07:20:40.845Z,98717.34
2023-01-19T07:23:40.848Z,98734.81
2023-01-19T07:26:40.875Z,98734.56
2023-01-19T07:29:40.853Z,98722.47
2023-01-19T07:32:42.825Z,98712.03
2023-01-19T07:35:42.847Z,98719.47
2023-01-19T07:38:42.845Z,98717.25
2023-01-19T07:41:42.828Z,98718.91
2023-01-19T07:44:42.836Z,98736.34
2023-01-19T07:47:42.797Z,98728.78
2023-01-19T07:50:42.873Z,98750.34
2023-01-19T07:53:42.810Z,98716.09
2023-01-19T07:56:42.839Z,98742.53
2023-01-19T07:59:42.857Z,98754.47
2023-01-19T08:02:44.843Z,98758.44
2023-01-19T08:05:46.921Z,98740.56
2023-01-19T08:08:46.901Z,98714.41
2023-01-19T08:11:46.825Z,98753.47
2023-01-19T08:14:46.820Z,98723.50
2023-01-19T08:17:46.850Z,98760.84
2023-01-19T08:20:46.835Z,98755.75
2023-01-19T08:23:46.869Z,98738.00
2023-01-19T08:26:48.814Z,98758.37
2023-01-19T08:29:48.866Z,98744.03
2023-01-19T08:32:48.809Z,98769.38
2023-01-19T08:35:52.855Z,98768.41
2023-01-19T08:38:52.851Z,98765.81
2023-01-19T08:41:52.833Z,98769.78
2023-01-19T08:44:58.113Z,98777.88
2023-01-19T08:47:57.869Z,98738.75
2023-01-19T08:51:02.833Z,98767.50
2023-01-19T08:54:06.830Z,98773.00
2023-01-19T08:57:08.030Z,98779.19
2023-01-19T09:00:07.936Z,98779.56
2023-01-19T09:03:11.295Z,98781.06
2023-01-19T09:06:10.836Z,98779.97
2023-01-19T09:09:10.856Z,98752.88
2023-01-19T09:12:10.806Z,98780.38
2023-01-19T09:15:11.040Z,98777.69
2023-01-19T09:18:10.812Z,98800.31
2023-01-19T09:21:12.820Z,98790.78
2023-01-19T09:24:12.876Z,98784.69
2023-01-19T09:27:12.819Z,98792.06
2023-01-19T09:30:12.862Z,98777.19
2023-01-19T09:33:17.855Z,98753.44
2023-01-19T09:36:17.857Z,98781.03
2023-01-19T09:39:17.831Z,98773.66
2023-01-19T09:42:43.871Z,98790.09
2023-01-19T09:45:49.874Z,98794.69
2023-01-19T09:48:56.859Z,98785.34
2023-01-19T09:52:02.895Z,98774.00
2023-01-19T09:55:10.884Z,98794.09
2023-01-19T09:58:11.827Z,98758.37
2023-01-19T10:01:35.180Z,98791.53
2023-01-19T10:04:58.863Z,98798.66
2023-01-19T10:08:12.846Z,98792.25
2023-01-19T10:11:12.847Z,98785.66
2023-01-19T10:14:12.819Z,98759.94
2023-01-19T10:17:36.807Z,98784.88
2023-01-19T10:20:41.819Z,98784.28
2023-01-19T10:23:59.934Z,98764.72
2023-01-19T10:27:03.836Z,98781.31
2023-01-19T10:30:03.857Z,98756.38
2023-01-19T10:33:04.874Z,98742.44
2023-01-19T10:36:04.817Z,98745.44
2023-01-19T10:39:04.828Z,98742.38
2023-01-19T10:42:06.817Z,98777.94
2023-01-19T10:45:06.826Z,98780.41
2023-01-19T10:48:06.903Z,98773.78
2023-01-19T10:51:17.843Z,98779.47
2023-01-19T10:54:18.997Z,98773.44
2023-01-19T10:57:21.815Z,98775.78
2023-01-19T11:00:55.323Z,98770.69
2023-01-19T11:03:56.894Z,98742.63
2023-01-19T11:06:56.880Z,98736.13
2023-01-19T11:09:56.844Z,98756.78
2023-01-19T11:13:00.173Z,98774.59
2023-01-19T11:16:21.814Z,98776.84
2023-01-19T11:19:31.831Z,98768.59
2023-01-19T11:22:38.838Z,98771.06
2023-01-19T11:25:44.833Z,98762.09
2023-01-19T11:28:49.024Z,98753.72
2023-01-19T11:31:49.085Z,98766.81
2023-01-19T11:34:49.866Z,98781.69
2023-01-19T11:37:49.830Z,98779.09
2023-01-19T11:40:49.890Z,98779.56
2023-01-19T11:43:49.868Z,98783.97
2023-01-19T11:46:53.817Z,98795.66
2023-01-19T11:50:05.937Z,98806.75
2023-01-19T11:53:29.835Z,98792.47
2023-01-19T11:56:29.797Z,98795.88
2023-01-19T11:59:31.849Z,98794.47
2023-01-19T12:02:43.818Z,98802.25
2023-01-19T12:05:48.091Z,98797.06
2023-01-19T12:08:54.836Z,98821.75
2023-01-19T12:11:57.838Z,98802.50
2023-01-19T12:15:12.887Z,98832.53
2023-01-19T12:18:13.810Z,98824.81
2023-01-19T12:21:13.779Z,98814.09
2023-01-19T12:24:29.839Z,98829.31
2023-01-19T12:27:41.000Z,98826.13
2023-01-19T12:30:42.917Z,98819.16
2023-01-19T12:33:43.819Z,98822.59
2023-01-19T12:36:43.827Z,98831.31
2023-01-19T12:39:43.848Z,98826.59
2023-01-19T12:42:45.091Z,98828.72
2023-01-19T12:45:47.883Z,98840.31
2023-01-19T12:48:47.899Z,98827.44
2023-01-19T12:51:47.889Z,98824.47
2023-01-19T12:54:47.796Z,98836.28
2023-01-19T12:57:54.821Z,98846.81
2023-01-19T13:00:56.886Z,98841.81
2023-01-19T13:03:59.790Z,98853.06
2023-01-19T13:07:02.822Z,98849.63
2023-01-19T13:10:03.842Z,98834.87
2023-01-19T13:13:30.812Z,98847.97
2023-01-19T13:19:57.863Z,98851.41
2023-01-19T13:23:00.847Z,98856.81
2023-01-19T13:26:03.843Z,98867.69
2023-01-19T13:29:06.853Z,98831.91
2023-01-19T13:32:09.977Z,98850.94
2023-01-19T13:35:11.853Z,98872.66
2023-01-19T13:38:12.946Z,98745.31
2023-01-19T13:41:14.864Z,98830.13
2023-01-19T13:44:40.888Z,98871.28
2023-01-19T13:47:50.808Z,98889.91
2023-01-19T13:50:51.806Z,98896.87
2023-01-19T13:53:51.839Z,98877.84
2023-01-19T13:56:51.832Z,98887.31
2023-01-19T13:59:51.828Z,98898.16
2023-01-19T14:02:52.915Z,98913.28
2023-01-19T14:05:54.896Z,98917.63
2023-01-19T14:08:54.857Z,98915.41
2023-01-19T14:11:54.861Z,98917.88
2023-01-19T14:14:55.859Z,98914.09
2023-01-19T14:17:55.857Z,98880.41
2023-01-19T14:21:08.871Z,98904.53
2023-01-19T14:24:23.811Z,98894.63
2023-01-19T14:27:37.838Z,98899.09
2023-01-19T14:30:33.853Z,98918.25
2023-01-19T14:33:47.785Z,98897.75
2023-01-19T14:36:48.824Z,98915.44
2023-01-19T14:39:48.820Z,98923.44
2023-01-19T14:42:57.858Z,98922.03
2023-01-19T14:46:00.829Z,98926.53
2023-01-19T14:49:02.818Z,98929.22
2023-01-19T14:52:03.057Z,98911.22
2023-01-19T14:55:02.851Z,98926.81
2023-01-19T14:58:03.889Z,98906.31
2023-01-19T15:01:03.959Z,98935.63
2023-01-19T15:04:03.849Z,98946.63
2023-01-19T15:07:03.801Z,98934.44
2023-01-19T15:10:03.834Z,98947.91
2023-01-19T15:13:04.808Z,98952.62
2023-01-19T15:16:05.867Z,98981.34
2023-01-19T15:19:05.823Z,98987.78
2023-01-19T15:22:05.799Z,98975.09
2023-01-19T15:25:07.070Z,99003.37
2023-01-19T15:28:06.844Z,98991.44
2023-01-19T15:31:06.827Z,99009.19
2023-01-19T15:34:06.818Z,99006.38
2023-01-19T15:37:06.805Z,99002.13
2023-01-19T15:40:06.822Z,99021.34
2023-01-19T15:43:06.833Z,99014.25
2023-01-19T15:46:15.835Z,99041.59
2023-01-19T15:49:15.835Z,99036.25
2023-01-19T15:52:17.087Z,99015.53
2023-01-19T15:55:16.847Z,99047.59
2023-01-19T15:58:16.798Z,99032.59
2023-01-19T16:01:16.928Z,99050.13
2023-01-19T16:04:18.796Z,99070.34
2023-01-19T16:07:18.821Z,99082.28
2023-01-19T16:10:19.796Z,99071.75
2023-01-19T16:13:19.876Z,99075.41
2023-01-19T16:16:21.830Z,99088.78
2023-01-19T16:19:21.809Z,99076.06
2023-01-19T16:22:22.801Z,99095.03
2023-01-19T16:25:22.811Z,99106.59
2023-01-19T16:28:22.825Z,99127.50
2023-01-19T16:31:22.861Z,99127.81
2023-01-19T16:34:24.787Z,99121.66
2023-01-19T16:37:26.188Z,99133.81
2023-01-19T16:40:27.796Z,99131.56
2023-01-19T16:43:28.387Z,99137.25
2023-01-19T16:46:33.843Z,99138.47
2023-01-19T16:49:35.830Z,99152.88
2023-01-19T16:52:35.805Z,99164.53
2023-01-19T16:55:35.833Z,99162.03
2023-01-19T16:58:35.811Z,99160.94
2023-01-19T17:01:29.950Z,99168.34
2023-01-19T17:04:15.841Z,99170.00
2023-01-19T17:07:18.186Z,99177.25
2023-01-19T17:10:18.866Z,99178.72
2023-01-19T17:13:18.841Z,99208.97
2023-01-19T17:16:19.851Z,99206.41
2023-01-19T17:19:20.836Z,99212.62
2023-01-19T17:22:21.869Z,99226.75
2023-01-19T17:25:21.825Z,99215.09
2023-01-19T17:28:21.791Z,99217.72
2023-01-19T17:31:29.973Z,99243.38
2023-01-19T17:34:29.817Z,99246.50
2023-01-19T17:37:29.807Z,99239.75
2023-01-19T17:40:32.784Z,99263.53
2023-01-19T17:43:32.824Z,99242.75
2023-01-19T17:46:34.782Z,99274.12
2023-01-19T17:49:34.840Z,99282.63
2023-01-19T17:52:34.821Z,99272.62
2023-01-19T17:55:34.792Z,99296.72
2023-01-19T17:58:34.837Z,99275.22
2023-01-19T18:01:36.854Z,99295.28
2023-01-19T18:04:36.811Z,99301.31
2023-01-19T18:07:36.843Z,99305.88
2023-01-19T18:10:36.841Z,99294.66
2023-01-19T18:13:36.805Z,99295.69
2023-01-19T18:16:38.785Z,99299.19
2023-01-19T18:19:38.784Z,99291.91
2023-01-19T18:22:38.807Z,99319.75
2023-01-19T18:25:38.834Z,99281.34
2023-01-19T18:28:38.843Z,99321.44
2023-01-19T18:31:39.921Z,99320.72
2023-01-19T18:34:39.843Z,99324.34
2023-01-19T18:37:39.851Z,99319.81
2023-01-19T18:40:39.810Z,99316.56
2023-01-19T18:43:39.844Z,99313.81
2023-01-19T18:46:39.904Z,99353.28
2023-01-19T18:49:39.831Z,99354.28
2023-01-19T18:52:39.827Z,99371.81
2023-01-19T18:55:39.834Z,99365.88
2023-01-19T18:58:39.819Z,99351.13
2023-01-19T19:01:41.950Z,99369.69
2023-01-19T19:04:41.827Z,99378.69
2023-01-19T19:07:42.811Z,99377.63
2023-01-19T19:10:42.826Z,99382.50
2023-01-19T19:13:42.771Z,99398.91
2023-01-19T19:16:43.812Z,99368.53
2023-01-19T19:19:43.813Z,99360.94
2023-01-19T19:22:43.837Z,99399.94
2023-01-19T19:25:45.818Z,99392.44
2023-01-19T19:28:45.803Z,99414.47
2023-01-19T19:31:38.853Z,99429.81
2023-01-19T19:34:18.929Z,99435.09
2023-01-19T19:37:04.793Z,99439.25
2023-01-19T19:39:43.884Z,99414.25
2023-01-19T19:42:30.819Z,99433.31
2023-01-19T19:45:24.799Z,99419.16
2023-01-19T19:48:24.831Z,99437.87
2023-01-19T19:51:33.808Z,99432.38
2023-01-19T19:54:33.841Z,99452.75
2023-01-19T19:57:33.812Z,99463.28
2023-01-19T20:00:33.836Z,99470.13
2023-01-19T20:03:33.792Z,99473.16
2023-01-19T20:06:35.808Z,99471.41
2023-01-19T20:09:35.796Z,99463.62
2023-01-19T20:12:35.831Z,99469.66
2023-01-19T20:15:35.771Z,99464.34
2023-01-19T20:18:35.809Z,99480.63
2023-01-19T20:21:39.810Z,99500.66
2023-01-19T20:24:39.821Z,99499.72
2023-01-19T20:27:39.798Z,99474.94
2023-01-19T20:30:39.823Z,99508.31
2023-01-19T20:33:39.831Z,99505.63
2023-01-19T20:36:39.784Z,99509.84
2023-01-19T20:39:41.817Z,99502.66
2023-01-19T20:42:42.782Z,99532.88
2023-01-19T20:45:42.873Z,99532.88
2023-01-19T20:48:42.823Z,99536.37
2023-01-19T20:51:43.801Z,99519.69
2023-01-19T20:54:44.826Z,99543.91
2023-01-19T20:57:44.821Z,99558.59
2023-01-19T21:00:44.810Z,99546.16
2023-01-19T21:03:44.814Z,99551.56
2023-01-19T21:06:44.797Z,99546.38
2023-01-19T21:09:45.826Z,99537.78
2023-01-19T21:12:45.798Z,99564.53
2023-01-19T21:15:45.781Z,99583.50
2023-01-19T21:18:45.785Z,99558.78
2023-01-19T21:21:45.815Z,99585.09
2023-01-19T21:24:45.841Z,99599.72
2023-01-19T21:27:45.828Z,99600.47
2023-01-19T21:30:45.838Z,99614.25
2023-01-19T21:33:45.839Z,99602.38
2023-01-19T21:36:45.797Z,99608.91
2023-01-19T21:39:45.788Z,99596.34
2023-01-19T21:42:46.785Z,99604.91
2023-01-19T21:45:46.795Z,99606.38
2023-01-19T21:48:46.805Z,99620.41
2023-01-19T21:51:50.003Z,99608.91
2023-01-19T21:54:49.799Z,99629.84
2023-01-19T21:57:49.787Z,99636.78
2023-01-19T22:00:49.920Z,99624.00
2023-01-19T22:03:49.826Z,99608.34
2023-01-19T22:06:49.796Z,99632.63
2023-01-19T22:09:49.792Z,99624.34
2023-01-19T22:12:51.813Z,99621.09
2023-01-19T22:15:51.808Z,99620.91
2023-01-19T22:18:52.815Z,99636.41
2023-01-19T22:21:53.777Z,99633.63
2023-01-19T22:24:53.765Z,99628.78
2023-01-19T22:27:53.773Z,99627.34
2023-01-19T22:30:53.885Z,99624.75
2023-01-19T22:33:53.824Z,99602.88
2023-01-19T22:36:53.800Z,99628.44
2023-01-19T22:39:53.775Z,99629.94
2023-01-19T22:42:53.817Z,99634.38
2023-01-19T22:45:56.827Z,99620.28
2023-01-19T22:48:56.844Z,99640.28
2023-01-19T22:51:56.791Z,99633.63
2023-01-19T22:54:56.789Z,99633.06
2023-01-19T22:57:56.776Z,99617.84
2023-01-19T23:00:56.891Z,99625.75
2023-01-19T23:03:56.825Z,99599.13
2023-01-19T23:06:56.811Z,99610.41
2023-01-19T23:09:56.790Z,99641.75
2023-01-19T23:12:56.805Z,99640.06
2023-01-19T23:15:56.854Z,99619.94
2023-01-19T23:18:56.820Z,99631.72
2023-01-19T23:21:56.825Z,99629.13
2023-01-19T23:24:56.812Z,99615.03
2023-01-19T23:27:56.772Z,99595.56
2023-01-19T23:30:56.883Z,99603.09
2023-01-19T23:33:56.768Z,99594.53
2023-01-19T23:36:56.779Z,99610.50
2023-01-19T23:39:56.777Z,99615.78
2023-01-19T23:42:56.781Z,99591.47
2023-01-19T23:45:56.823Z,99620.03
2023-01-19T23:48:57.003Z,99600.06
2023-01-19T23:51:56.786Z,99620.03
2023-01-19T23:54:56.824Z,99620.09
2023-01-19T23:57:56.809Z,99615.03
